createdAt,value
2023-01-13T00:00:16.108Z,4.78
2023-01-13T00:02:43.628Z,4.71
2023-01-13T00:05:11.215Z,4.78
2023-01-13T00:07:40.348Z,5.00
2023-01-13T00:10:11.065Z,4.90
2023-01-13T00:12:42.035Z,4.86
2023-01-13T00:15:10.091Z,4.97
2023-01-13T00:17:38.911Z,4.93
2023-01-13T00:20:07.017Z,5.03
2023-01-13T00:22:35.230Z,5.15
2023-01-13T00:25:04.563Z,5.22
2023-01-13T00:27:34.969Z,5.19
2023-01-13T00:30:02.497Z,5.06
2023-01-13T00:32:29.831Z,4.82
2023-01-13T00:34:57.265Z,4.90
2023-01-13T00:37:24.760Z,4.96
2023-01-13T00:39:52.786Z,4.92
2023-01-13T00:42:38.683Z,4.93
2023-01-13T00:45:06.591Z,4.78
2023-01-13T00:47:33.909Z,4.72
2023-01-13T00:50:01.316Z,4.80
2023-01-13T00:52:28.622Z,4.83
2023-01-13T00:54:55.957Z,4.66
2023-01-13T00:57:23.269Z,4.56
2023-01-13T00:59:50.646Z,4.54
2023-01-13T01:02:18.058Z,4.61
2023-01-13T01:04:45.505Z,4.83
2023-01-13T01:07:13.061Z,4.80
2023-01-13T01:09:40.466Z,4.78
2023-01-13T01:12:07.851Z,4.87
2023-01-13T01:14:35.196Z,5.13
2023-01-13T01:17:02.557Z,5.05
2023-01-13T01:19:29.930Z,5.06
2023-01-13T01:21:57.240Z,4.82
2023-01-13T01:24:24.637Z,4.82
2023-01-13T01:26:51.930Z,4.97
2023-01-13T01:29:19.378Z,5.01
2023-01-13T01:31:46.885Z,4.93
2023-01-13T01:34:14.371Z,4.78
2023-01-13T01:36:41.676Z,4.66
2023-01-13T01:39:09.786Z,4.82
2023-01-13T01:41:37.329Z,4.78
2023-01-13T01:44:29.265Z,4.54
2023-01-13T01:46:56.717Z,4.73
2023-01-13T01:49:31.116Z,4.83
2023-01-13T01:52:02.334Z,5.06
2023-01-13T01:54:38.637Z,4.92
2023-01-13T01:57:06.690Z,4.90
2023-01-13T01:59:34.016Z,4.68
2023-01-13T02:02:01.540Z,4.65
2023-01-13T02:04:31.074Z,4.82
2023-01-13T02:06:58.656Z,4.78
2023-01-13T02:09:26.490Z,4.76
2023-01-13T02:12:12.496Z,4.71
2023-01-13T02:14:39.946Z,4.65
2023-01-13T02:17:10.250Z,4.68
2023-01-13T02:20:05.394Z,4.58
2023-01-13T02:22:59.957Z,4.51
2023-01-13T02:25:48.809Z,4.30
2023-01-13T02:29:02.669Z,4.25
2023-01-13T02:31:45.131Z,4.42
2023-01-13T02:34:17.837Z,4.35
2023-01-13T02:36:54.156Z,4.34
2023-01-13T02:39:31.245Z,4.31
2023-01-13T02:42:27.925Z,4.40
2023-01-13T02:45:07.179Z,4.34
2023-01-13T02:47:36.309Z,4.17
2023-01-13T02:50:05.631Z,4.25
2023-01-13T02:52:45.055Z,4.25
2023-01-13T02:55:23.711Z,4.21
2023-01-13T02:57:51.086Z,4.27
2023-01-13T03:00:18.874Z,4.31
2023-01-13T03:02:48.335Z,4.18
2023-01-13T03:05:16.050Z,4.11
2023-01-13T03:07:53.440Z,4.03
2023-01-13T03:10:54.164Z,3.76
2023-01-13T03:13:21.497Z,3.83
2023-01-13T03:15:59.094Z,3.69
2023-01-13T03:18:51.135Z,3.49
2023-01-13T03:21:26.111Z,3.38
2023-01-13T03:24:03.734Z,3.48
2023-01-13T03:26:38.911Z,3.66
2023-01-13T03:29:19.396Z,3.73
2023-01-13T03:32:03.893Z,3.60
2023-01-13T03:34:37.369Z,3.58
2023-01-13T03:37:06.537Z,3.48
2023-01-13T03:39:35.589Z,3.54
2023-01-13T03:42:06.780Z,3.60
2023-01-13T03:44:46.793Z,3.49
2023-01-13T03:47:26.618Z,3.65
2023-01-13T03:50:03.993Z,3.77
2023-01-13T03:52:33.741Z,3.70
2023-01-13T03:55:10.878Z,3.69
2023-01-13T03:58:00.286Z,3.54
2023-01-13T04:00:37.715Z,3.55
2023-01-13T04:03:07.871Z,3.42
2023-01-13T04:05:36.275Z,3.45
2023-01-13T04:08:23.498Z,3.55
2023-01-13T04:11:01.171Z,3.56
2023-01-13T04:13:30.295Z,3.40
2023-01-13T04:15:57.707Z,3.45
2023-01-13T04:18:27.019Z,3.40
2023-01-13T04:20:56.600Z,3.63
2023-01-13T04:23:24.310Z,3.62
2023-01-13T04:25:51.725Z,3.72
2023-01-13T04:28:19.275Z,3.63
2023-01-13T04:30:46.860Z,3.62
2023-01-13T04:33:14.820Z,3.69
2023-01-13T04:35:42.271Z,3.62
2023-01-13T04:38:11.851Z,3.48
2023-01-13T04:40:40.175Z,3.34
2023-01-13T04:43:07.538Z,3.34
2023-01-13T04:45:34.909Z,3.38
2023-01-13T04:48:02.280Z,3.40
2023-01-13T04:50:29.713Z,3.34
2023-01-13T04:52:57.096Z,3.27
2023-01-13T04:55:24.842Z,3.28
2023-01-13T04:57:52.260Z,3.32
2023-01-13T05:00:21.544Z,3.28
2023-01-13T05:02:52.042Z,3.34
2023-01-13T05:05:19.417Z,3.34
2023-01-13T05:07:46.747Z,3.31
2023-01-13T05:10:14.219Z,3.40
2023-01-13T05:13:00.049Z,3.48
2023-01-13T05:15:46.243Z,3.55
2023-01-13T05:18:13.580Z,3.51
2023-01-13T05:20:43.969Z,3.60
2023-01-13T05:23:29.742Z,3.62
2023-01-13T05:25:57.116Z,3.43
2023-01-13T05:28:24.381Z,3.34
2023-01-13T05:30:52.636Z,3.36
2023-01-13T05:33:22.741Z,3.40
2023-01-13T05:35:50.185Z,3.28
2023-01-13T05:38:18.205Z,3.31
2023-01-13T05:41:04.397Z,3.45
2023-01-13T05:43:33.221Z,3.58
2023-01-13T05:46:01.652Z,3.56
2023-01-13T05:48:31.803Z,3.58
2023-01-13T05:50:59.563Z,3.56
2023-01-13T05:53:29.625Z,3.45
2023-01-13T05:55:57.060Z,3.51
2023-01-13T05:58:25.810Z,3.49
2023-01-13T06:00:53.696Z,3.46
2023-01-13T06:03:21.159Z,3.62
2023-01-13T06:05:48.652Z,3.42
2023-01-13T06:08:16.064Z,3.55
2023-01-13T06:10:43.506Z,3.51
2023-01-13T06:13:11.081Z,3.55
2023-01-13T06:15:38.589Z,3.58
2023-01-13T06:18:06.096Z,3.66
2023-01-13T06:20:33.558Z,3.68
2023-01-13T06:23:01.058Z,3.59
2023-01-13T06:25:54.860Z,3.51
2023-01-13T06:28:22.573Z,3.56
2023-01-13T06:30:51.579Z,3.69
2023-01-13T06:33:21.384Z,3.77
2023-01-13T06:35:54.637Z,3.75
2023-01-13T06:38:22.085Z,3.85
2023-01-13T06:40:49.472Z,3.91
2023-01-13T06:43:17.576Z,3.83
2023-01-13T06:45:55.648Z,4.03
2023-01-13T06:48:28.366Z,4.04
2023-01-13T06:50:57.401Z,4.04
2023-01-13T06:53:25.196Z,4.00
2023-01-13T06:55:53.470Z,3.85
2023-01-13T06:58:21.889Z,3.97
2023-01-13T07:00:52.689Z,4.03
2023-01-13T07:03:20.468Z,3.98
2023-01-13T07:05:52.947Z,4.16
2023-01-13T07:08:32.379Z,4.24
2023-01-13T07:11:04.073Z,4.24
2023-01-13T07:13:50.372Z,4.18
2023-01-13T07:16:19.342Z,4.25
2023-01-13T07:18:47.203Z,4.33
2023-01-13T07:21:18.999Z,4.22
2023-01-13T07:23:47.314Z,4.16
2023-01-13T07:26:15.136Z,4.21
2023-01-13T07:28:43.418Z,4.33
2023-01-13T07:31:16.320Z,4.37
2023-01-13T07:33:44.092Z,4.54
2023-01-13T07:36:12.043Z,4.51
2023-01-13T07:38:40.088Z,4.61
2023-01-13T07:41:26.777Z,4.54
2023-01-13T07:43:54.590Z,4.64
2023-01-13T07:46:22.454Z,4.45
2023-01-13T07:48:50.377Z,4.13
2023-01-13T07:51:26.890Z,4.10
2023-01-13T07:53:57.268Z,3.97
2023-01-13T07:56:24.759Z,4.00
2023-01-13T07:58:55.567Z,3.97
2023-01-13T08:01:23.908Z,3.96
2023-01-13T08:03:52.813Z,4.07
2023-01-13T08:06:23.997Z,4.56
2023-01-13T08:08:51.665Z,4.99
2023-01-13T08:11:23.768Z,4.96
2023-01-13T08:13:58.347Z,5.01
2023-01-13T08:16:31.312Z,5.10
2023-01-13T08:19:00.985Z,5.10
2023-01-13T08:21:28.613Z,5.03
2023-01-13T08:24:30.078Z,4.96
2023-01-13T08:27:09.235Z,4.75
2023-01-13T08:29:39.731Z,4.95
2023-01-13T08:35:18.114Z,5.01
2023-01-13T08:37:46.162Z,4.92
2023-01-13T08:40:18.729Z,4.82
2023-01-13T08:42:48.606Z,4.78
2023-01-13T08:45:30.497Z,4.97
2023-01-13T08:48:00.599Z,4.99
2023-01-13T08:50:30.624Z,4.93
2023-01-13T08:52:59.161Z,4.83
2023-01-13T08:55:26.918Z,5.03
2023-01-13T08:58:03.405Z,5.17
2023-01-13T09:00:38.074Z,5.26
2023-01-13T09:03:05.496Z,5.26
2023-01-13T09:05:33.357Z,5.31
2023-01-13T09:08:00.797Z,5.36
2023-01-13T09:10:28.483Z,5.38
2023-01-13T09:13:14.277Z,5.58
2023-01-13T09:15:43.095Z,5.37
2023-01-13T09:18:14.107Z,5.44
2023-01-13T09:20:42.253Z,5.27
2023-01-13T09:23:12.864Z,5.41
2023-01-13T09:25:40.937Z,5.55
2023-01-13T09:28:08.844Z,5.65
2023-01-13T09:30:37.643Z,5.65
2023-01-13T09:33:23.632Z,5.64
2023-01-13T09:35:51.442Z,5.50
2023-01-13T09:38:19.130Z,5.61
2023-01-13T09:40:47.955Z,5.74
2023-01-13T09:43:38.724Z,5.81
2023-01-13T09:46:32.630Z,6.02
2023-01-13T09:49:00.238Z,6.15
2023-01-13T09:51:32.296Z,6.29
2023-01-13T09:54:32.221Z,6.32
2023-01-13T09:57:00.822Z,6.27
2023-01-13T09:59:33.515Z,6.24
2023-01-13T10:02:29.655Z,6.32
2023-01-13T10:05:23.608Z,6.29
2023-01-13T10:07:59.898Z,6.36
2023-01-13T10:10:43.637Z,6.46
2023-01-13T10:13:30.774Z,6.33
2023-01-13T10:16:07.038Z,5.98
2023-01-13T10:18:49.454Z,5.96
2023-01-13T10:21:52.978Z,5.96
2023-01-13T10:24:54.492Z,6.19
2023-01-13T10:27:25.610Z,6.50
2023-01-13T10:30:03.064Z,6.95
2023-01-13T10:32:45.674Z,7.13
2023-01-13T10:35:21.723Z,7.25
2023-01-13T10:37:56.942Z,7.23
2023-01-13T10:40:25.896Z,7.09
2023-01-13T10:43:07.005Z,7.43
2023-01-13T10:45:37.674Z,7.54
2023-01-13T10:48:07.767Z,7.32
2023-01-13T10:50:35.738Z,7.19
2023-01-13T10:53:25.486Z,7.25
2023-01-13T10:56:05.280Z,7.26
2023-01-13T10:58:43.575Z,7.20
2023-01-13T11:01:40.580Z,7.08
2023-01-13T11:08:24.100Z,6.84
2023-01-13T11:10:56.675Z,6.89
2023-01-13T11:13:38.662Z,6.96
2023-01-13T11:16:16.169Z,6.94
2023-01-13T11:19:02.527Z,6.89
2023-01-13T11:21:41.827Z,6.94
2023-01-13T11:24:18.426Z,7.04
2023-01-13T11:27:08.608Z,7.06
2023-01-13T11:29:43.120Z,7.25
2023-01-13T11:32:17.055Z,7.26
2023-01-13T11:34:46.253Z,7.37
2023-01-13T11:37:43.930Z,7.40
2023-01-13T11:40:25.252Z,7.36
2023-01-13T11:42:59.620Z,7.34
2023-01-13T11:45:35.900Z,7.36
2023-01-13T11:48:03.990Z,7.13
2023-01-13T11:50:51.713Z,7.11
2023-01-13T11:53:44.649Z,7.12
2023-01-13T11:56:25.471Z,7.18
2023-01-13T11:59:33.609Z,7.05
2023-01-13T12:02:26.869Z,6.89
2023-01-13T12:05:29.251Z,6.89
2023-01-13T12:08:00.468Z,6.92
2023-01-13T12:10:40.612Z,6.85
2023-01-13T12:13:31.508Z,6.94
2023-01-13T12:16:16.381Z,6.91
2023-01-13T12:18:56.179Z,6.96
2023-01-13T12:21:33.452Z,6.84
2023-01-13T12:24:10.934Z,6.91
2023-01-13T12:26:41.005Z,7.08
2023-01-13T12:29:35.523Z,6.99
2023-01-13T12:32:05.966Z,7.01
2023-01-13T12:34:57.395Z,7.11
2023-01-13T12:37:40.397Z,7.25
2023-01-13T12:40:29.159Z,7.52
2023-01-13T12:43:39.643Z,7.64
2023-01-13T12:46:20.115Z,7.74
2023-01-13T12:48:59.647Z,7.75
2023-01-13T12:51:34.560Z,7.95
2023-01-13T12:54:03.031Z,7.83
2023-01-13T12:56:44.828Z,7.92
2023-01-13T12:59:33.283Z,7.80
2023-01-13T13:02:13.089Z,7.81
2023-01-13T13:04:53.325Z,7.92
2023-01-13T13:07:52.246Z,8.01
2023-01-13T13:10:38.598Z,7.85
2023-01-13T13:13:41.023Z,7.75
2023-01-13T13:16:47.992Z,7.70
2023-01-13T13:19:18.142Z,7.74
2023-01-13T13:22:13.854Z,7.73
2023-01-13T13:24:42.079Z,7.85
2023-01-13T13:27:37.441Z,7.81
2023-01-13T13:30:20.231Z,7.70
2023-01-13T13:32:56.543Z,7.84
2023-01-13T13:35:31.993Z,7.88
2023-01-13T13:38:30.159Z,7.99
2023-01-13T13:41:16.477Z,7.95
2023-01-13T13:44:03.369Z,7.92
2023-01-13T13:46:48.185Z,7.94
2023-01-13T13:49:16.424Z,7.97
2023-01-13T13:51:53.055Z,8.06
2023-01-13T13:54:21.652Z,8.05
2023-01-13T13:56:50.413Z,7.99
2023-01-13T13:59:25.675Z,8.02
2023-01-13T14:02:01.665Z,8.02
2023-01-13T14:04:39.232Z,7.99
2023-01-13T14:07:21.215Z,8.14
2023-01-13T14:09:50.693Z,8.20
2023-01-13T14:12:26.032Z,7.98
2023-01-13T14:14:56.851Z,7.91
2023-01-13T14:17:28.577Z,7.90
2023-01-13T14:20:05.281Z,8.04
2023-01-13T14:22:32.872Z,7.90
2023-01-13T14:25:02.101Z,8.01
2023-01-13T14:27:30.609Z,7.95
2023-01-13T14:29:59.490Z,8.01
2023-01-13T14:32:32.875Z,7.97
2023-01-13T14:35:00.265Z,7.88
2023-01-13T14:37:39.708Z,7.95
2023-01-13T14:40:07.548Z,7.99
2023-01-13T14:42:35.701Z,7.99
2023-01-13T14:45:03.500Z,7.88
2023-01-13T14:47:33.966Z,7.77
2023-01-13T14:50:10.679Z,7.78
2023-01-13T14:52:47.749Z,7.81
2023-01-13T14:55:18.166Z,7.77
2023-01-13T14:57:47.100Z,7.75
2023-01-13T15:00:14.379Z,7.88
2023-01-13T15:02:47.974Z,7.74
2023-01-13T15:05:22.690Z,7.67
2023-01-13T15:08:11.847Z,7.75
2023-01-13T15:10:48.672Z,7.73
2023-01-13T15:13:26.331Z,7.63
2023-01-13T15:15:55.945Z,7.64
2023-01-13T15:18:23.313Z,7.53
2023-01-13T15:20:53.464Z,7.52
2023-01-13T15:23:21.121Z,7.66
2023-01-13T15:25:48.474Z,7.53
2023-01-13T15:28:25.551Z,7.42
2023-01-13T15:30:53.770Z,7.29
2023-01-13T15:33:21.768Z,7.46
2023-01-13T15:35:51.000Z,7.42
2023-01-13T15:38:20.236Z,7.36
2023-01-13T15:40:48.323Z,7.69
2023-01-13T15:43:41.236Z,7.88
2023-01-13T15:46:39.143Z,7.88
2023-01-13T15:49:44.750Z,7.59
2023-01-13T15:52:23.098Z,7.53
2023-01-13T15:54:51.283Z,7.63
2023-01-13T15:57:24.661Z,7.59
2023-01-13T15:59:53.493Z,7.53
2023-01-13T16:02:24.999Z,7.66
2023-01-13T16:04:54.039Z,7.57
2023-01-13T16:07:21.665Z,7.56
2023-01-13T16:09:49.045Z,7.56
2023-01-13T16:12:16.374Z,7.39
2023-01-13T16:14:43.818Z,7.43
2023-01-13T16:17:22.514Z,7.54
2023-01-13T16:19:49.982Z,7.40
2023-01-13T16:22:17.744Z,7.34
2023-01-13T16:24:45.210Z,7.29
2023-01-13T16:27:16.439Z,7.18
2023-01-13T16:29:43.977Z,7.37
2023-01-13T16:32:11.272Z,7.50
2023-01-13T16:34:38.690Z,7.42
2023-01-13T16:37:26.683Z,7.53
2023-01-13T16:39:54.179Z,7.36
2023-01-13T16:42:21.453Z,7.18
2023-01-13T16:44:49.822Z,6.98
2023-01-13T16:47:17.829Z,7.08
2023-01-13T16:49:45.399Z,6.95
2023-01-13T16:52:12.796Z,6.95
2023-01-13T16:54:40.238Z,6.91
2023-01-13T16:57:09.946Z,6.92
2023-01-13T16:59:37.311Z,6.94
2023-01-13T17:02:04.939Z,6.88
2023-01-13T17:04:32.287Z,6.70
2023-01-13T17:07:00.959Z,6.58
2023-01-13T17:09:28.630Z,6.44
2023-01-13T17:11:56.463Z,6.33
2023-01-13T17:14:24.415Z,6.37
2023-01-13T17:16:53.518Z,6.43
2023-01-13T17:19:22.669Z,6.48
2023-01-13T17:21:51.238Z,6.43
2023-01-13T17:24:18.766Z,6.32
2023-01-13T17:26:49.167Z,6.26
2023-01-13T17:29:18.262Z,6.44
2023-01-13T17:31:45.678Z,6.37
2023-01-13T17:34:13.470Z,6.40
2023-01-13T17:36:41.299Z,6.44
2023-01-13T17:39:19.503Z,6.43
2023-01-13T17:41:47.190Z,6.37
2023-01-13T17:44:15.436Z,6.34
2023-01-13T17:46:43.316Z,6.36
2023-01-13T17:49:11.570Z,6.38
2023-01-13T17:51:39.030Z,6.44
2023-01-13T17:54:06.601Z,6.65
2023-01-13T17:56:34.058Z,6.80
2023-01-13T17:59:01.607Z,6.74
2023-01-13T18:01:32.967Z,6.60
2023-01-13T18:04:00.752Z,6.84
2023-01-13T18:06:28.465Z,6.74
2023-01-13T18:08:55.896Z,6.48
2023-01-13T18:11:23.347Z,6.53
2023-01-13T18:13:52.349Z,6.60
2023-01-13T18:16:19.921Z,6.61
2023-01-13T18:18:49.337Z,6.80
2023-01-13T18:21:43.722Z,6.70
2023-01-13T18:24:30.931Z,6.77
2023-01-13T18:27:16.834Z,6.85
2023-01-13T18:29:44.196Z,6.94
2023-01-13T18:32:11.624Z,6.94
2023-01-13T18:34:39.281Z,6.87
2023-01-13T18:37:07.223Z,6.91
2023-01-13T18:39:34.870Z,7.01
2023-01-13T18:42:20.806Z,7.08
2023-01-13T18:44:48.323Z,6.88
2023-01-13T18:47:15.696Z,6.77
2023-01-13T18:49:43.124Z,6.71
2023-01-13T18:52:10.624Z,6.89
2023-01-13T18:54:38.040Z,6.92
2023-01-13T18:57:05.357Z,6.57
2023-01-13T18:59:34.676Z,6.58
2023-01-13T19:02:03.034Z,6.57
2023-01-13T19:04:32.107Z,6.43
2023-01-13T19:07:01.138Z,6.44
2023-01-13T19:09:31.485Z,6.70
2023-01-13T19:12:01.281Z,6.67
2023-01-13T19:14:34.549Z,6.46
2023-01-13T19:17:06.768Z,6.38
2023-01-13T19:19:34.142Z,6.60
2023-01-13T19:22:01.460Z,6.48
2023-01-13T19:24:28.842Z,6.46
2023-01-13T19:26:56.121Z,6.55
2023-01-13T19:29:23.464Z,6.67
2023-01-13T19:31:50.730Z,6.53
2023-01-13T19:34:18.564Z,6.44
2023-01-13T19:36:45.860Z,6.40
2023-01-13T19:39:14.110Z,6.63
2023-01-13T19:41:59.929Z,6.48
2023-01-13T19:44:45.869Z,6.40
2023-01-13T19:47:13.234Z,6.37
2023-01-13T19:49:40.514Z,6.38
2023-01-13T19:52:07.872Z,6.55
2023-01-13T19:54:35.228Z,6.34
2023-01-13T19:57:02.635Z,6.23
2023-01-13T19:59:29.992Z,6.36
2023-01-13T20:01:57.614Z,6.41
2023-01-13T20:04:37.667Z,6.53
2023-01-13T20:07:05.909Z,6.47
2023-01-13T20:09:34.033Z,6.47
2023-01-13T20:12:10.314Z,6.54
2023-01-13T20:14:37.682Z,6.54
2023-01-13T20:17:05.101Z,6.51
2023-01-13T20:19:32.489Z,6.70
2023-01-13T20:21:59.775Z,6.64
2023-01-13T20:24:27.263Z,6.64
2023-01-13T20:26:54.790Z,6.48
2023-01-13T20:29:22.182Z,6.58
2023-01-13T20:31:50.076Z,6.61
2023-01-13T20:34:20.296Z,6.73
2023-01-13T20:36:48.522Z,6.70
2023-01-13T20:39:17.354Z,6.61
2023-01-13T20:42:03.285Z,6.67
2023-01-13T20:44:30.727Z,6.37
2023-01-13T20:46:59.142Z,6.27
2023-01-13T20:49:27.476Z,6.40
2023-01-13T20:51:55.092Z,6.37
2023-01-13T20:54:22.505Z,6.34
2023-01-13T20:56:49.863Z,6.47
2023-01-13T20:59:17.308Z,6.46
2023-01-13T21:01:44.648Z,6.54
2023-01-13T21:04:12.082Z,6.44
2023-01-13T21:06:39.387Z,6.23
2023-01-13T21:09:06.851Z,6.36
2023-01-13T21:11:52.530Z,6.12
2023-01-13T21:14:40.167Z,6.24
2023-01-13T21:17:07.957Z,6.10
2023-01-13T21:19:35.224Z,6.07
2023-01-13T21:22:04.152Z,5.98
2023-01-13T21:24:31.447Z,6.01
2023-01-13T21:27:01.558Z,6.06
2023-01-13T21:29:28.939Z,6.05
2023-01-13T21:31:56.388Z,6.12
2023-01-13T21:34:23.720Z,6.17
2023-01-13T21:36:51.054Z,6.13
2023-01-13T21:39:18.517Z,6.12
2023-01-13T21:42:04.286Z,6.12
2023-01-13T21:44:49.896Z,6.16
2023-01-13T21:47:36.293Z,6.03
2023-01-13T21:50:04.162Z,5.96
2023-01-13T21:52:31.426Z,5.75
2023-01-13T21:55:17.369Z,5.75
2023-01-13T21:57:45.602Z,5.75
2023-01-13T22:00:13.359Z,5.57
2023-01-13T22:02:40.896Z,5.69
2023-01-13T22:05:08.867Z,5.78
2023-01-13T22:07:36.519Z,5.88
2023-01-13T22:10:04.580Z,5.72
2023-01-13T22:12:32.620Z,5.81
2023-01-13T22:14:59.921Z,5.88
2023-01-13T22:17:27.754Z,5.98
2023-01-13T22:19:57.259Z,6.13
2023-01-13T22:22:25.111Z,5.89
2023-01-13T22:24:52.984Z,5.86
2023-01-13T22:27:25.313Z,5.99
2023-01-13T22:29:52.840Z,5.79
2023-01-13T22:32:20.665Z,5.64
2023-01-13T22:34:48.455Z,5.52
2023-01-13T22:37:15.761Z,5.72
2023-01-13T22:39:43.194Z,5.64
2023-01-13T22:42:11.694Z,5.59
2023-01-13T22:44:39.081Z,5.62
2023-01-13T22:47:08.571Z,5.76
2023-01-13T22:49:35.931Z,5.61
2023-01-13T22:52:03.390Z,5.58
2023-01-13T22:54:30.747Z,5.69
2023-01-13T22:56:57.990Z,5.69
2023-01-13T22:59:25.476Z,5.50
2023-01-13T23:01:52.835Z,5.66
2023-01-13T23:04:20.241Z,5.43
2023-01-13T23:06:47.647Z,5.48
2023-01-13T23:09:15.119Z,5.51
2023-01-13T23:11:42.539Z,5.55
2023-01-13T23:14:11.195Z,5.72
2023-01-13T23:16:39.660Z,5.79
2023-01-13T23:19:07.303Z,5.81
2023-01-13T23:21:36.337Z,5.61
2023-01-13T23:24:04.628Z,5.52
2023-01-13T23:26:32.726Z,5.54
2023-01-13T23:29:01.226Z,5.37
2023-01-13T23:31:28.636Z,5.16
2023-01-13T23:33:55.983Z,5.00
2023-01-13T23:36:25.073Z,5.05
2023-01-13T23:38:52.806Z,5.13
2023-01-13T23:41:24.283Z,5.05
2023-01-13T23:43:53.065Z,5.03
2023-01-13T23:46:20.674Z,5.05
2023-01-13T23:48:48.546Z,5.13
2023-01-13T23:51:15.928Z,5.28
2023-01-13T23:53:45.098Z,5.40
2023-01-13T23:56:14.829Z,5.57
2023-01-13T23:58:42.648Z,5.59
